Time;durP1;ratioP1;P1;durP2;ratioP2;P2;SDS_P1;SDS_P2;PMS_P1;PMS_P2;Temp;Humidity;BMP_temperature;BMP_pressure;BME280_temperature;BME280_humidity;BME280_pressure;Samples;Min_cycle;Max_cycle;Signal;HPM_P1;HPM_P2
2022/08/06 00:02:29;;;;;;;5.70;1.67;;;16.10;99.90;;;;;;5033822;28;20045;-73
2022/08/06 00:05:00;;;;;;;5.65;1.65;;;16.10;99.90;;;;;;5033917;28;20032;-74
2022/08/06 00:07:26;;;;;;;6.65;1.92;;;16.20;99.90;;;;;;5033780;28;20017;-73
2022/08/06 00:09:52;;;;;;;8.27;1.50;;;15.80;99.90;;;;;;5032148;28;20355;-73
2022/08/06 00:12:18;;;;;;;4.43;1.60;;;15.90;99.90;;;;;;5029829;28;20057;-74
2022/08/06 00:14:43;;;;;;;6.47;1.77;;;16.00;99.90;;;;;;5017292;28;20501;-73
2022/08/06 00:17:09;;;;;;;8.15;1.95;;;15.70;99.90;;;;;;5023990;28;20121;-73
2022/08/06 00:19:35;;;;;;;11.18;2.08;;;15.30;99.90;;;;;;5024438;28;20025;-73
2022/08/06 00:22:01;;;;;;;7.07;1.73;;;15.70;99.90;;;;;;5027519;28;20407;-73
2022/08/06 00:24:26;;;;;;;8.60;2.03;;;15.80;99.90;;;;;;5033334;28;20386;-74
2022/08/06 00:26:52;;;;;;;5.18;1.88;;;16.00;99.90;;;;;;5033367;28;20025;-74
2022/08/06 00:29:18;;;;;;;5.28;1.80;;;16.10;99.90;;;;;;5001717;28;20032;-73
2022/08/06 00:31:44;;;;;;;6.65;1.98;;;16.00;99.90;;;;;;5031999;28;20060;-74
2022/08/06 00:34:09;;;;;;;10.05;1.95;;;16.10;99.90;;;;;;5033070;28;20025;-74
2022/08/06 00:36:35;;;;;;;7.70;1.90;;;16.10;99.90;;;;;;5033140;28;20490;-75
2022/08/06 00:39:04;;;;;;;4.45;1.73;;;15.80;99.90;;;;;;5033048;28;20306;-74
2022/08/06 00:41:31;;;;;;;4.88;1.98;;;15.30;99.90;;;;;;5033146;28;20021;-73
2022/08/06 00:43:58;;;;;;;6.10;1.80;;;14.90;99.90;;;;;;5033318;28;20466;-73
2022/08/06 00:46:25;;;;;;;6.28;1.70;;;14.80;99.90;;;;;;5018838;28;20018;-73
2022/08/06 00:48:51;;;;;;;6.00;1.88;;;15.20;99.90;;;;;;5033107;28;20091;-74
2022/08/06 00:51:17;;;;;;;7.25;2.17;;;15.10;99.90;;;;;;5019185;28;20025;-74
2022/08/06 00:53:42;;;;;;;9.13;1.98;;;15.10;99.90;;;;;;5032988;28;20493;-73
2022/08/06 00:56:08;;;;;;;8.07;1.95;;;15.20;99.90;;;;;;5031604;28;20041;-76
2022/08/06 00:58:34;;;;;;;5.68;2.05;;;15.00;99.90;;;;;;5032957;28;20017;-74
2022/08/06 01:01:00;;;;;;;6.20;1.75;;;14.80;99.90;;;;;;5031315;28;20029;-74
2022/08/06 01:03:26;;;;;;;6.40;1.95;;;14.70;99.90;;;;;;5032568;28;20044;-74
2022/08/06 01:05:51;;;;;;;7.35;2.10;;;14.70;99.90;;;;;;5032760;28;20075;-74
2022/08/06 01:08:18;;;;;;;6.53;1.88;;;14.50;99.90;;;;;;5031624;28;20061;-74
2022/08/06 01:10:44;;;;;;;9.05;1.70;;;14.50;99.90;;;;;;5032778;28;20112;-74
2022/08/06 01:13:09;;;;;;;9.25;2.70;;;14.90;99.90;;;;;;5032143;28;20109;-75
2022/08/06 01:15:39;;;;;;;8.07;2.17;;;14.80;99.90;;;;;;5032756;28;20467;-74
2022/08/06 01:18:10;;;;;;;4.13;1.90;;;14.40;99.90;;;;;;5032657;28;20033;-74
2022/08/06 01:20:54;;;;;;;5.88;1.65;;;14.40;99.90;;;;;;5018407;28;20096;-77
2022/08/06 01:23:36;;;;;;;9.77;2.17;;;14.60;99.90;;;;;;5032332;28;20048;-74
2022/08/06 01:26:20;;;;;;;8.90;1.98;;;15.00;99.90;;;;;;5032620;28;20109;-74
2022/08/06 01:29:05;;;;;;;4.85;1.75;;;14.70;99.90;;;;;;5032441;28;20083;-74
2022/08/06 01:32:03;;;;;;;10.40;1.77;;;14.70;99.90;;;;;;5032758;28;20036;-74
2022/08/06 01:34:38;;;;;;;6.28;2.30;;;14.80;99.90;;;;;;5030968;28;20038;-74
2022/08/06 01:37:13;;;;;;;8.40;1.95;;;14.30;99.90;;;;;;5030724;28;20032;-73
2022/08/06 01:39:42;;;;;;;7.65;1.88;;;14.20;99.90;;;;;;5032491;28;20518;-73
2022/08/06 01:42:10;;;;;;;6.18;1.90;;;14.20;99.90;;;;;;5031420;28;20564;-73
2022/08/06 01:44:40;;;;;;;10.65;2.55;;;14.00;99.90;;;;;;5032142;28;20068;-73
2022/08/06 01:47:09;;;;;;;6.30;1.70;;;14.20;99.90;;;;;;5032445;28;20021;-74
2022/08/06 01:49:39;;;;;;;7.30;1.88;;;14.40;99.90;;;;;;5030790;28;20037;-74
2022/08/06 01:52:07;;;;;;;6.05;1.88;;;14.10;99.90;;;;;;5032527;28;20091;-74
2022/08/06 01:54:40;;;;;;;7.40;2.13;;;14.20;99.90;;;;;;5032295;28;20026;-74
2022/08/06 01:57:07;;;;;;;6.55;2.05;;;14.50;99.90;;;;;;5031243;28;20029;-74
2022/08/06 01:59:36;;;;;;;10.30;1.85;;;14.70;99.90;;;;;;5031820;28;20771;-74
2022/08/06 02:02:04;;;;;;;6.10;2.22;;;14.70;99.90;;;;;;5032169;28;20033;-74
2022/08/06 02:04:34;;;;;;;9.07;2.33;;;14.90;99.90;;;;;;5031683;28;20061;-74
2022/08/06 02:07:03;;;;;;;4.15;2.03;;;14.90;99.90;;;;;;5031906;28;20029;-74
2022/08/06 02:09:31;;;;;;;9.85;2.03;;;15.00;99.90;;;;;;5030774;28;20068;-74
2022/08/06 02:12:04;;;;;;;11.32;2.42;;;14.60;99.90;;;;;;5032188;28;20030;-74
2022/08/06 02:14:32;;;;;;;8.43;2.08;;;14.80;99.90;;;;;;5031923;28;20034;-74
2022/08/06 02:17:01;;;;;;;8.88;2.03;;;15.10;99.90;;;;;;5032266;28;20052;-74
2022/08/06 02:19:29;;;;;;;6.85;1.73;;;15.10;99.90;;;;;;5024065;28;20038;-74
2022/08/06 02:21:59;;;;;;;7.20;2.47;;;15.20;99.90;;;;;;5032481;28;20110;-74
2022/08/06 02:24:28;;;;;;;2.92;1.60;;;15.00;99.90;;;;;;5035810;28;20034;-74
2022/08/06 02:26:57;;;;;;;9.85;2.47;;;14.80;99.90;;;;;;5035511;28;20022;-74
2022/08/06 02:29:25;;;;;;;12.38;2.95;;;14.60;99.90;;;;;;5035426;28;20029;-74
2022/08/06 02:31:51;;;;;;;6.75;2.38;;;14.90;99.90;;;;;;5035454;28;20033;-74
2022/08/06 02:34:21;;;;;;;13.60;2.85;;;14.70;99.90;;;;;;5034099;28;20017;-74
2022/08/06 02:36:56;;;;;;;4.75;2.20;;;14.40;99.90;;;;;;5034290;28;20038;-75
2022/08/06 02:39:31;;;;;;;7.82;2.50;;;13.90;99.90;;;;;;5033876;28;20025;-74
2022/08/06 02:42:02;;;;;;;5.80;2.47;;;13.60;99.90;;;;;;5035309;28;20117;-74
2022/08/06 02:44:45;;;;;;;8.87;2.20;;;13.70;99.90;;;;;;5035487;28;20033;-74
2022/08/06 02:47:30;;;;;;;5.95;2.47;;;14.10;99.90;;;;;;5035239;28;20377;-74
2022/08/06 02:50:00;;;;;;;8.30;2.60;;;14.10;99.90;;;;;;5035336;28;20033;-74
2022/08/06 02:52:49;;;;;;;10.88;2.75;;;13.70;99.90;;;;;;5033814;28;20529;-74
2022/08/06 02:55:22;;;;;;;10.85;2.45;;;13.90;99.90;;;;;;5034029;28;20033;-74
2022/08/06 02:57:54;;;;;;;9.60;2.47;;;14.20;99.90;;;;;;5035121;28;20033;-74
2022/08/06 03:00:21;;;;;;;7.15;2.53;;;14.60;99.90;;;;;;5034853;28;20056;-74
2022/08/06 03:02:50;;;;;;;10.48;2.35;;;14.20;99.90;;;;;;5034800;28;20117;-74
2022/08/06 03:05:19;;;;;;;7.63;2.15;;;14.20;99.90;;;;;;5033826;28;20041;-74
2022/08/06 03:07:48;;;;;;;7.78;2.30;;;14.10;99.90;;;;;;5034792;28;20092;-75
2022/08/06 03:10:18;;;;;;;10.77;2.70;;;14.00;99.90;;;;;;5034725;28;20033;-76
2022/08/06 03:12:45;;;;;;;8.75;2.20;;;14.30;99.90;;;;;;5034819;28;20470;-77
2022/08/06 03:15:12;;;;;;;6.45;2.40;;;14.00;99.90;;;;;;5034805;28;20478;-75
2022/08/06 03:17:40;;;;;;;5.30;2.78;;;14.20;99.90;;;;;;5033226;28;20037;-74
2022/08/06 03:20:07;;;;;;;8.45;2.45;;;14.40;99.90;;;;;;5002938;28;20058;-74
2022/08/06 03:22:36;;;;;;;5.85;2.70;;;14.40;99.90;;;;;;5033426;28;20036;-74
2022/08/06 03:25:04;;;;;;;9.55;2.22;;;14.60;99.90;;;;;;5034329;28;20057;-77
2022/08/06 03:27:31;;;;;;;8.00;2.40;;;14.60;99.90;;;;;;5034596;28;20013;-76
2022/08/06 03:29:58;;;;;;;3.05;2.05;;;14.60;99.90;;;;;;5033808;28;20030;-77
2022/08/06 03:32:25;;;;;;;6.88;2.55;;;14.50;99.90;;;;;;5034302;28;20029;-77
2022/08/06 03:34:52;;;;;;;7.75;2.33;;;14.30;99.90;;;;;;5034151;28;20033;-77
2022/08/06 03:37:20;;;;;;;6.90;2.03;;;14.20;99.90;;;;;;5034437;28;20022;-78
2022/08/06 03:39:47;;;;;;;8.68;2.42;;;14.00;99.90;;;;;;5034373;28;20029;-77
2022/08/06 03:42:13;;;;;;;4.00;2.65;;;14.10;99.90;;;;;;5033973;28;20474;-79
2022/08/06 03:44:39;;;;;;;8.65;2.70;;;14.20;99.90;;;;;;5034269;28;20151;-76
2022/08/06 03:47:19;;;;;;;7.03;2.42;;;14.10;99.90;;;;;;5033866;28;20029;-77
2022/08/06 03:50:00;;;;;;;6.40;2.35;;;14.40;99.90;;;;;;5022111;28;20497;-77
2022/08/06 03:52:31;;;;;;;8.52;3.05;;;14.30;99.90;;;;;;5034054;28;20115;-77
2022/08/06 03:55:02;;;;;;;9.13;2.88;;;14.50;99.90;;;;;;5033207;28;20048;-77
2022/08/06 03:57:36;;;;;;;5.15;2.85;;;14.60;99.90;;;;;;5033526;28;20112;-77
2022/08/06 04:00:04;;;;;;;10.15;2.75;;;14.20;99.90;;;;;;5033030;28;20033;-77
2022/08/06 04:02:44;;;;;;;5.55;3.00;;;14.00;99.90;;;;;;5033538;28;20047;-77
2022/08/06 04:05:11;;;;;;;10.00;2.97;;;14.00;99.90;;;;;;5033973;28;20048;-79
2022/08/06 04:07:38;;;;;;;6.55;3.38;;;13.90;99.90;;;;;;5033157;28;20127;-77
2022/08/06 04:10:04;;;;;;;8.90;2.80;;;13.50;99.90;;;;;;5033391;28;20032;-76
2022/08/06 04:12:31;;;;;;;6.82;2.30;;;13.60;99.90;;;;;;5033703;28;20031;-77
2022/08/06 04:14:59;;;;;;;9.95;2.85;;;13.70;99.90;;;;;;5033317;28;20402;-76
2022/08/06 04:17:26;;;;;;;10.25;3.03;;;13.90;99.90;;;;;;5033516;28;20469;-76
2022/08/06 04:19:53;;;;;;;7.32;2.95;;;14.20;99.90;;;;;;5020089;28;20116;-77
2022/08/06 04:22:20;;;;;;;8.35;2.28;;;14.10;99.90;;;;;;5019640;28;20013;-77
2022/08/06 04:24:47;;;;;;;11.65;2.90;;;14.00;99.90;;;;;;5033831;28;20043;-77
2022/08/06 04:27:14;;;;;;;4.20;2.15;;;13.90;99.90;;;;;;5033402;28;20021;-77
2022/08/06 04:29:41;;;;;;;8.25;3.03;;;13.90;99.90;;;;;;5033482;28;20033;-74
2022/08/06 04:32:09;;;;;;;5.47;2.45;;;14.00;99.90;;;;;;5033230;28;20108;-74
2022/08/06 04:34:38;;;;;;;7.18;2.33;;;14.20;99.90;;;;;;5033649;28;20097;-74
2022/08/06 04:37:05;;;;;;;8.25;3.10;;;14.10;99.90;;;;;;5033113;28;20029;-77
2022/08/06 04:39:32;;;;;;;8.07;2.70;;;14.10;99.90;;;;;;5033491;28;20025;-78
2022/08/06 04:41:58;;;;;;;13.07;3.13;;;14.40;99.90;;;;;;5032078;28;20482;-78
2022/08/06 04:44:27;;;;;;;7.10;2.75;;;14.40;99.90;;;;;;5032994;28;20069;-80
2022/08/06 04:46:54;;;;;;;10.80;2.90;;;14.60;99.90;;;;;;5033125;28;20040;-77
2022/08/06 04:49:20;;;;;;;8.40;2.78;;;14.60;99.90;;;;;;5031919;28;20024;-78
2022/08/06 04:51:46;;;;;;;7.95;3.00;;;14.60;99.90;;;;;;5033080;28;20026;-77
2022/08/06 04:54:13;;;;;;;11.68;3.13;;;14.40;99.90;;;;;;5033153;28;20105;-77
2022/08/06 04:56:40;;;;;;;5.10;2.60;;;14.40;99.90;;;;;;5032988;28;20528;-77
2022/08/06 04:59:06;;;;;;;4.20;2.60;;;14.30;99.90;;;;;;5032685;28;20083;-77
2022/08/06 05:01:32;;;;;;;6.65;3.08;;;14.50;99.90;;;;;;5031787;28;20036;-77
2022/08/06 05:03:58;;;;;;;11.27;2.88;;;14.40;99.90;;;;;;5032961;28;20038;-77
2022/08/06 05:06:46;;;;;;;9.57;2.97;;;14.70;99.90;;;;;;5032952;28;20505;-74
2022/08/06 05:09:17;;;;;;;7.45;2.97;;;14.80;99.90;;;;;;5032478;28;20076;-74
2022/08/06 05:11:50;;;;;;;5.65;3.10;;;14.90;99.90;;;;;;5032964;28;20034;-74
2022/08/06 05:14:25;;;;;;;8.73;3.10;;;14.90;99.90;;;;;;5031414;28;20039;-74
2022/08/06 05:16:53;;;;;;;5.72;2.92;;;15.10;99.90;;;;;;5032695;28;20025;-77
2022/08/06 05:19:28;;;;;;;7.43;3.05;;;15.20;99.90;;;;;;5023632;28;20029;-77
2022/08/06 05:21:56;;;;;;;10.07;3.88;;;15.20;99.90;;;;;;5029207;28;20025;-77
2022/08/06 05:24:22;;;;;;;8.38;2.80;;;15.20;99.90;;;;;;5023336;28;20559;-77
2022/08/06 05:26:48;;;;;;;8.45;3.13;;;15.20;99.90;;;;;;5032502;28;20026;-77
2022/08/06 05:29:19;;;;;;;12.55;3.25;;;15.50;99.90;;;;;;5032436;28;20030;-77
2022/08/06 05:31:45;;;;;;;9.85;2.75;;;15.80;99.90;;;;;;5032780;28;20041;-77
2022/08/06 05:34:12;;;;;;;5.22;2.50;;;15.90;99.90;;;;;;5032478;28;20025;-74
2022/08/06 05:36:38;;;;;;;11.93;2.72;;;15.40;99.90;;;;;;5032647;28;20048;-78
2022/08/06 05:39:05;;;;;;;9.30;2.53;;;14.70;99.90;;;;;;5032239;28;20080;-76
2022/08/06 05:41:30;;;;;;;7.32;2.10;;;14.50;99.90;;;;;;5032054;28;20053;-77
2022/08/06 05:43:59;;;;;;;10.48;3.15;;;14.50;99.90;;;;;;5032166;28;20115;-76
2022/08/06 05:46:31;;;;;;;9.18;2.47;;;15.00;99.90;;;;;;5032579;28;20374;-77
2022/08/06 05:49:20;;;;;;;15.20;3.67;;;15.40;99.90;;;;;;5032144;28;20045;-77
2022/08/06 05:52:13;;;;;;;12.45;3.53;;;15.60;99.90;;;;;;5031241;28;20064;-77
2022/08/06 05:54:50;;;;;;;8.55;3.13;;;15.90;99.90;;;;;;5035426;28;20377;-77
2022/08/06 05:57:20;;;;;;;11.20;2.72;;;16.00;99.90;;;;;;5034851;28;20056;-77
2022/08/06 05:59:53;;;;;;;7.38;2.90;;;15.90;99.90;;;;;;5034783;28;20091;-77
2022/08/06 06:02:20;;;;;;;7.60;2.58;;;16.00;99.90;;;;;;5035166;28;20408;-77
2022/08/06 06:04:47;;;;;;;11.65;2.88;;;16.20;99.90;;;;;;5023995;28;20134;-76
2022/08/06 06:07:14;;;;;;;6.20;2.47;;;16.50;99.90;;;;;;5024269;28;20021;-76
2022/08/06 06:09:41;;;;;;;6.22;2.67;;;16.50;99.90;;;;;;5021904;28;20044;-76
2022/08/06 06:12:09;;;;;;;7.95;2.88;;;16.40;99.90;;;;;;5018791;28;20057;-73
2022/08/06 06:14:43;;;;;;;10.02;2.92;;;16.60;99.90;;;;;;5018852;28;20057;-73
2022/08/06 06:17:27;;;;;;;15.10;2.75;;;16.70;99.90;;;;;;5023111;28;20033;-73
2022/08/06 06:20:25;;;;;;;8.80;2.72;;;16.40;99.90;;;;;;5027800;28;20386;-72
2022/08/06 06:23:12;;;;;;;9.55;2.80;;;16.60;99.90;;;;;;5010612;28;20049;-73
2022/08/06 06:25:48;;;;;;;13.93;2.42;;;16.90;99.90;;;;;;5019145;28;20029;-73
2022/08/06 06:28:51;;;;;;;8.52;2.47;;;17.10;99.90;;;;;;5021581;28;20041;-73
2022/08/06 06:31:35;;;;;;;13.18;2.75;;;17.20;99.90;;;;;;5020134;28;20041;-73
2022/08/06 06:34:14;;;;;;;14.30;2.92;;;17.30;99.90;;;;;;5023971;28;20029;-79
2022/08/06 06:36:56;;;;;;;11.60;3.10;;;17.20;99.90;;;;;;5028648;28;20044;-73
2022/08/06 06:40:05;;;;;;;13.05;2.88;;;16.70;99.90;;;;;;5019184;28;20375;-74
2022/08/06 06:42:37;;;;;;;16.15;3.00;;;17.20;99.90;;;;;;5016204;28;20037;-74
2022/08/06 06:45:24;;;;;;;23.95;3.00;;;17.50;99.90;;;;;;5016312;28;20131;-75
2022/08/06 06:48:12;;;;;;;18.88;3.42;;;17.80;99.90;;;;;;5021931;28;20379;-71
2022/08/06 06:50:45;;;;;;;22.95;2.30;;;17.40;99.90;;;;;;5019459;28;20057;-71
2022/08/06 06:53:12;;;;;;;7.45;2.30;;;17.80;99.90;;;;;;5014488;28;20029;-71
2022/08/06 06:55:42;;;;;;;8.07;1.83;;;17.80;99.90;;;;;;5019018;28;20018;-71
2022/08/06 06:58:17;;;;;;;7.25;1.98;;;18.00;99.90;;;;;;5029447;28;20648;-71
2022/08/06 07:00:43;;;;;;;6.45;1.90;;;18.00;99.90;;;;;;5024254;28;20029;-71
2022/08/06 07:03:11;;;;;;;4.18;2.13;;;18.10;99.90;;;;;;5030740;28;20038;-71
2022/08/06 07:05:43;;;;;;;9.32;1.90;;;18.40;99.90;;;;;;5019417;28;20022;-71
2022/08/06 07:08:11;;;;;;;11.90;1.70;;;18.50;99.90;;;;;;5016908;28;20038;-72
2022/08/06 07:10:39;;;;;;;10.07;2.13;;;18.80;99.90;;;;;;5016116;28;20366;-71
2022/08/06 07:13:06;;;;;;;7.65;2.17;;;19.00;99.90;;;;;;5018359;28;20033;-71
2022/08/06 07:15:33;;;;;;;7.68;2.03;;;19.20;99.90;;;;;;5013820;28;20105;-72
2022/08/06 07:18:00;;;;;;;9.40;2.10;;;18.90;99.90;;;;;;5015406;28;20490;-71
2022/08/06 07:20:29;;;;;;;9.52;2.20;;;19.20;99.90;;;;;;5016058;28;20072;-71
2022/08/06 07:23:00;;;;;;;7.22;2.22;;;19.20;99.90;;;;;;5014218;28;20041;-71
2022/08/06 07:25:26;;;;;;;7.43;2.10;;;19.40;99.90;;;;;;5012550;28;20447;-73
2022/08/06 07:27:53;;;;;;;7.90;2.13;;;18.60;99.90;;;;;;5014414;28;20045;-73
2022/08/06 07:30:21;;;;;;;8.73;2.22;;;18.00;99.90;;;;;;5014839;28;20049;-73
2022/08/06 07:32:48;;;;;;;7.07;1.80;;;18.30;99.90;;;;;;5013800;28;20037;-73
2022/08/06 07:35:19;;;;;;;4.65;1.30;;;18.70;99.90;;;;;;5014604;28;20483;-75
2022/08/06 07:37:57;;;;;;;9.00;1.65;;;19.00;99.90;;;;;;5014336;28;20033;-73
2022/08/06 07:40:30;;;;;;;6.35;1.95;;;19.00;99.90;;;;;;5014869;28;20387;-75
2022/08/06 07:43:20;;;;;;;4.75;1.65;;;19.40;99.90;;;;;;5015929;28;20034;-72
2022/08/06 07:45:48;;;;;;;3.83;1.60;;;19.30;99.90;;;;;;5021744;28;20099;-72
2022/08/06 07:48:16;;;;;;;11.50;1.00;;;19.40;99.90;;;;;;5023535;28;20038;-72
2022/08/06 07:50:50;;;;;;;6.90;1.38;;;19.20;99.90;;;;;;5014088;28;20374;-75
2022/08/06 07:53:17;;;;;;;3.00;0.70;;;19.50;99.90;;;;;;5013913;28;20033;-72
2022/08/06 07:55:43;;;;;;;6.15;0.90;;;20.00;99.90;;;;;;5014734;28;20104;-73
2022/08/06 07:58:10;;;;;;;8.13;1.23;;;20.40;99.90;;;;;;5024560;28;20112;-72
2022/08/06 08:00:37;;;;;;;3.90;0.93;;;20.20;99.90;;;;;;5022762;28;20091;-73
2022/08/06 08:08:33;;;;;;;4.43;0.80;;;20.50;99.80;;;;;;5016682;28;20044;-77
2022/08/06 08:11:00;;;;;;;4.63;1.27;;;20.20;99.90;;;;;;5028305;28;20033;-77
2022/08/06 08:13:26;;;;;;;4.13;0.80;;;20.30;99.90;;;;;;5021180;28;20140;-77
2022/08/06 08:15:54;;;;;;;7.82;1.00;;;20.90;99.00;;;;;;5019822;28;20029;-77
2022/08/06 08:18:20;;;;;;;5.80;0.90;;;20.90;99.10;;;;;;5015148;28;20049;-77
2022/08/06 08:20:47;;;;;;;2.22;0.93;;;20.70;99.20;;;;;;5021915;28;20102;-77
2022/08/06 08:23:14;;;;;;;7.53;0.90;;;20.80;99.40;;;;;;5030770;28;20047;-77
2022/08/06 08:25:40;;;;;;;3.70;0.90;;;20.80;98.70;;;;;;5028719;28;20018;-77
2022/08/06 08:28:10;;;;;;;3.22;1.00;;;21.10;98.40;;;;;;5032206;28;20037;-77
2022/08/06 08:30:40;;;;;;;2.22;0.95;;;21.70;97.90;;;;;;5031382;28;20111;-79
2022/08/06 08:33:06;;;;;;;2.35;0.80;;;22.00;96.70;;;;;;5032024;28;20039;-74
2022/08/06 08:35:31;;;;;;;2.00;0.63;;;22.20;96.70;;;;;;5028102;28;20049;-76
2022/08/06 08:37:57;;;;;;;3.88;0.80;;;20.30;97.90;;;;;;5009630;28;20030;-77
2022/08/06 08:40:24;;;;;;;1.70;0.60;;;20.30;99.60;;;;;;5015005;28;20018;-78
2022/08/06 08:42:55;;;;;;;3.15;0.80;;;21.10;97.60;;;;;;5025601;28;20161;-79
2022/08/06 08:45:22;;;;;;;2.63;1.00;;;21.80;97.00;;;;;;5021322;28;20037;-80
2022/08/06 08:47:51;;;;;;;1.95;0.80;;;21.70;96.30;;;;;;5026041;28;20020;-80
2022/08/06 08:50:24;;;;;;;3.05;0.80;;;21.40;96.30;;;;;;5017270;28;20030;-80
2022/08/06 08:52:55;;;;;;;4.80;0.70;;;21.70;96.50;;;;;;5025269;28;20519;-78
2022/08/06 08:55:25;;;;;;;8.05;0.77;;;21.80;95.40;;;;;;5018667;28;20056;-80
2022/08/06 08:57:52;;;;;;;2.70;0.63;;;22.30;94.30;;;;;;5029134;28;20030;-80
2022/08/06 09:00:19;;;;;;;2.22;0.60;;;22.70;93.80;;;;;;5021825;28;20033;-82
2022/08/06 09:02:45;;;;;;;3.47;0.70;;;22.30;94.00;;;;;;5018732;28;20057;-81
2022/08/06 09:05:12;;;;;;;1.75;0.60;;;22.30;94.30;;;;;;5028160;28;20049;-81
2022/08/06 09:07:39;;;;;;;3.15;1.35;;;22.40;93.90;;;;;;5025736;28;20080;-81
2022/08/06 09:10:07;;;;;;;3.47;1.00;;;22.20;93.80;;;;;;5027183;28;20033;-81
2022/08/06 09:12:33;;;;;;;1.83;0.70;;;22.20;93.00;;;;;;5020079;28;20447;-81
2022/08/06 09:14:59;;;;;;;1.90;0.68;;;22.50;93.00;;;;;;5016178;28;20026;-81
2022/08/06 09:17:25;;;;;;;3.25;1.17;;;22.80;93.00;;;;;;5011213;28;20113;-80
2022/08/06 09:19:52;;;;;;;5.25;0.95;;;22.90;93.50;;;;;;5012774;28;20061;-81
2022/08/06 09:22:18;;;;;;;2.03;0.65;;;23.30;93.30;;;;;;5031846;28;20429;-82
2022/08/06 09:24:44;;;;;;;2.15;0.68;;;23.00;93.30;;;;;;5030542;28;20100;-82
2022/08/06 09:27:14;;;;;;;3.17;0.50;;;23.40;92.80;;;;;;5032070;28;20079;-81
2022/08/06 09:30:00;;;;;;;6.03;1.23;;;23.30;92.80;;;;;;5031244;28;20485;-81
2022/08/06 09:32:46;;;;;;;1.85;0.60;;;23.20;92.70;;;;;;5028401;28;20075;-81
2022/08/06 09:35:19;;;;;;;2.53;1.23;;;23.50;92.40;;;;;;5032328;28;20029;-81
2022/08/06 09:37:46;;;;;;;5.35;0.82;;;23.20;92.10;;;;;;5019721;28;20088;-81
2022/08/06 09:40:17;;;;;;;6.53;0.82;;;23.20;92.40;;;;;;5032622;28;20079;-81
2022/08/06 09:42:46;;;;;;;3.33;0.90;;;23.40;92.00;;;;;;5032328;28;20467;-81
2022/08/06 09:45:14;;;;;;;6.32;0.75;;;23.60;91.90;;;;;;5030707;28;20375;-81
2022/08/06 09:47:40;;;;;;;3.63;0.68;;;23.80;91.50;;;;;;5031065;28;20091;-80
2022/08/06 09:50:07;;;;;;;4.03;0.80;;;23.00;91.20;;;;;;5031896;28;20433;-80
2022/08/06 09:52:33;;;;;;;2.08;0.60;;;23.30;91.60;;;;;;5032440;28;20096;-81
2022/08/06 09:54:59;;;;;;;2.70;0.85;;;23.60;90.40;;;;;;5032335;28;20033;-81
2022/08/06 09:57:27;;;;;;;2.90;0.40;;;23.90;90.80;;;;;;5032308;28;20036;-82
2022/08/06 09:59:53;;;;;;;6.25;0.52;;;23.70;89.10;;;;;;5032158;28;20159;-82
2022/08/06 10:02:20;;;;;;;1.67;0.60;;;24.10;90.40;;;;;;5032408;28;20041;-82
2022/08/06 10:04:48;;;;;;;3.70;0.60;;;23.80;90.50;;;;;;5030546;28;20040;-82
2022/08/06 10:07:16;;;;;;;2.55;1.00;;;24.10;90.60;;;;;;5032379;28;20158;-82
2022/08/06 10:09:57;;;;;;;2.15;0.60;;;24.40;89.80;;;;;;5031885;28;20052;-81
2022/08/06 10:12:24;;;;;;;2.28;0.70;;;23.80;86.80;;;;;;5031910;28;20104;-82
2022/08/06 10:14:50;;;;;;;3.22;0.68;;;23.50;89.00;;;;;;5021689;28;20421;-81
2022/08/06 10:17:21;;;;;;;1.27;0.45;;;23.30;89.30;;;;;;5020783;28;20167;-75
2022/08/06 10:20:07;;;;;;;2.00;0.70;;;23.60;90.20;;;;;;5022687;28;20055;-81
2022/08/06 10:22:32;;;;;;;3.25;0.70;;;24.10;90.10;;;;;;5027594;28;20095;-80
2022/08/06 10:25:01;;;;;;;2.53;0.60;;;24.70;88.60;;;;;;5030067;28;20505;-81
2022/08/06 10:27:37;;;;;;;0.68;0.30;;;24.30;87.20;;;;;;5014899;28;20088;-81
2022/08/06 10:30:05;;;;;;;1.95;0.85;;;24.50;88.50;;;;;;5024822;28;20030;-80
2022/08/06 10:32:34;;;;;;;2.50;0.60;;;24.40;88.10;;;;;;5019539;28;20025;-83
2022/08/06 10:35:03;;;;;;;3.15;0.60;;;24.60;89.80;;;;;;5031259;28;20108;-79
2022/08/06 10:37:32;;;;;;;2.38;0.73;;;25.00;88.40;;;;;;5030180;28;20048;-81
2022/08/06 10:40:00;;;;;;;2.30;0.73;;;24.50;87.20;;;;;;5033287;28;20037;-74
2022/08/06 10:42:27;;;;;;;2.33;0.65;;;24.60;89.00;;;;;;5034845;28;20097;-81
2022/08/06 10:44:53;;;;;;;2.65;0.80;;;25.40;88.90;;;;;;5021282;28;20072;-82
2022/08/06 10:47:20;;;;;;;2.95;0.80;;;24.40;85.70;;;;;;5024422;28;20026;-76
2022/08/06 10:49:46;;;;;;;5.05;1.10;;;24.40;86.90;;;;;;5013350;28;20136;-83
2022/08/06 10:52:13;;;;;;;2.65;0.93;;;24.60;89.30;;;;;;5013383;28;20017;-82
2022/08/06 10:54:40;;;;;;;7.47;0.88;;;25.90;86.90;;;;;;5014962;28;20097;-82
2022/08/06 10:57:09;;;;;;;5.43;0.80;;;26.40;85.50;;;;;;5014027;28;20034;-83
2022/08/06 10:59:35;;;;;;;3.05;0.80;;;26.90;84.70;;;;;;5014267;28;20044;-83
2022/08/06 11:02:31;;;;;;;7.60;1.40;;;26.20;82.50;;;;;;5013820;28;20541;-84
2022/08/06 11:05:19;;;;;;;5.22;1.88;;;25.30;84.30;;;;;;5014346;28;20048;-79
2022/08/06 11:07:45;;;;;;;42.75;13.20;;;25.30;84.10;;;;;;5017945;28;20154;-84
2022/08/06 11:10:37;;;;;;;2.85;1.10;;;25.80;84.90;;;;;;5016345;28;20105;-83
2022/08/06 11:13:18;;;;;;;4.30;1.30;;;26.20;82.30;;;;;;5014987;28;20463;-84
2022/08/06 11:15:44;;;;;;;2.80;0.80;;;25.70;82.60;;;;;;5021663;28;20022;-84
2022/08/06 11:18:11;;;;;;;1.10;0.50;;;25.00;84.30;;;;;;5014869;28;20478;-84
2022/08/06 11:20:41;;;;;;;6.25;2.10;;;24.80;83.30;;;;;;5016203;28;20032;-83
2022/08/06 11:23:23;;;;;;;3.22;0.90;;;25.00;86.30;;;;;;5018064;28;20044;-83
2022/08/06 11:25:50;;;;;;;;;;;25.20;85.80;;;;;;5020711;28;20038;-82
2022/08/06 11:28:16;;;;;;;2.50;1.20;;;25.40;84.70;;;;;;5034556;28;19909;-83
2022/08/06 11:30:42;;;;;;;5.80;1.17;;;25.60;83.40;;;;;;5034157;28;20462;-84
2022/08/06 11:33:10;;;;;;;7.38;1.60;;;25.70;83.50;;;;;;5034513;28;20068;-83
2022/08/06 11:35:35;;;;;;;3.08;0.80;;;26.50;83.80;;;;;;5034337;28;20048;-83
2022/08/06 11:38:03;;;;;;;2.42;0.90;;;26.60;82.90;;;;;;5034776;28;20068;-83
2022/08/06 11:40:58;;;;;;;3.70;1.15;;;26.80;81.80;;;;;;5023988;28;20049;-83
2022/08/06 11:43:43;;;;;;;1.98;0.70;;;26.50;81.10;;;;;;5034359;28;20033;-85
2022/08/06 11:46:29;;;;;;;3.65;1.10;;;25.80;80.60;;;;;;5019087;28;20494;-85
2022/08/06 11:49:03;;;;;;;5.05;1.17;;;26.30;81.70;;;;;;5034246;28;20037;-84
2022/08/06 11:51:54;;;;;;;4.28;1.13;;;27.00;81.00;;;;;;5032329;28;20084;-84
2022/08/06 11:54:28;;;;;;;3.28;0.82;;;27.90;79.70;;;;;;5032852;28;20025;-84
2022/08/06 11:57:04;;;;;;;4.82;0.90;;;26.70;78.30;;;;;;5016086;28;20026;-84
2022/08/06 11:59:34;;;;;;;2.58;0.90;;;26.80;80.00;;;;;;5013294;28;20028;-79
2022/08/06 12:02:03;;;;;;;2.35;0.80;;;26.90;78.90;;;;;;5015006;28;20048;-74
2022/08/06 12:04:32;;;;;;;3.55;1.20;;;26.30;78.80;;;;;;5015955;28;20036;-77
2022/08/06 12:07:17;;;;;;;4.70;1.08;;;25.40;80.40;;;;;;5015498;28;20049;-82
2022/08/06 12:09:45;;;;;;;5.97;1.10;;;24.80;82.80;;;;;;5017422;28;20108;-83
2022/08/06 12:12:29;;;;;;;3.38;1.00;;;25.50;84.30;;;;;;5014770;28;20029;-83
2022/08/06 12:14:57;;;;;;;3.17;0.93;;;25.90;83.30;;;;;;5014499;28;20025;-83
2022/08/06 12:17:25;;;;;;;3.15;0.90;;;26.30;80.70;;;;;;5015132;28;20025;-83
2022/08/06 12:19:53;;;;;;;2.80;1.13;;;27.30;80.80;;;;;;5030448;28;20101;-84
2022/08/06 12:22:22;;;;;;;3.95;1.10;;;28.00;79.80;;;;;;5029279;28;20560;-83
2022/08/06 12:24:54;;;;;;;4.30;1.48;;;28.50;80.10;;;;;;5025403;28;20078;-85
2022/08/06 12:27:21;;;;;;;3.38;1.15;;;27.80;77.50;;;;;;5032585;28;20063;-84
2022/08/06 12:29:48;;;;;;;3.30;1.40;;;27.20;79.60;;;;;;5032496;28;20028;-83
2022/08/06 12:32:24;;;;;;;3.53;1.65;;;27.00;79.30;;;;;;5032354;28;20227;-83
2022/08/06 12:34:54;;;;;;;2.92;1.10;;;25.30;80.50;;;;;;5023912;28;20056;-83
2022/08/06 12:37:21;;;;;;;3.83;1.33;;;25.60;80.90;;;;;;5032586;28;20032;-83
2022/08/06 12:42:32;;;;;;;4.95;1.40;;;25.90;81.00;;;;;;5031213;28;20025;-84
2022/08/06 12:44:58;;;;;;;3.15;1.27;;;27.00;82.40;;;;;;5031176;28;20132;-84
2022/08/06 12:47:27;;;;;;;3.35;1.35;;;27.20;79.60;;;;;;5031904;28;20108;-84
2022/08/06 12:49:53;;;;;;;1.65;1.13;;;27.90;79.60;;;;;;5032941;28;20488;-79
2022/08/06 12:52:21;;;;;;;4.22;1.38;;;27.90;78.30;;;;;;5031432;28;20044;-82
2022/08/06 12:54:48;;;;;;;3.78;1.27;;;27.70;78.10;;;;;;5031950;28;20104;-85
2022/08/06 12:57:25;;;;;;;5.18;1.50;;;28.00;77.50;;;;;;5032516;28;20044;-83
2022/08/06 12:59:52;;;;;;;3.47;1.20;;;27.80;79.30;;;;;;5015433;28;20030;-83
2022/08/06 13:02:20;;;;;;;7.60;1.55;;;28.60;79.20;;;;;;5026035;28;20025;-83
2022/08/06 13:04:49;;;;;;;4.13;1.88;;;29.10;77.60;;;;;;5031694;28;20053;-84
2022/08/06 13:07:16;;;;;;;6.90;1.40;;;28.80;76.40;;;;;;5031528;28;20551;-82
2022/08/06 13:09:45;;;;;;;3.53;1.40;;;28.30;76.20;;;;;;5032932;28;20080;-83
2022/08/06 13:12:17;;;;;;;5.93;1.55;;;28.40;75.80;;;;;;5032632;28;20037;-83